Time;durP1;ratioP1;P1;durP2;ratioP2;P2;SDS_P1;SDS_P2;PMS_P1;PMS_P2;Temp;Humidity;BMP_temperature;BMP_pressure;BME280_temperature;BME280_humidity;BME280_pressure;Samples;Min_cycle;Max_cycle;Signal;HPM_P1;HPM_P2
2022/12/04 00:00:35;;;;;;;65.45;19.00;;;;;;;-0.49;100.00;101656.50;4961124;28;20092;-94
2022/12/04 00:03:01;;;;;;;63.25;20.25;;;;;;;-0.58;100.00;101647.75;4969715;28;20031;-95
2022/12/04 00:05:36;;;;;;;61.97;20.07;;;;;;;-0.61;100.00;101643.63;5007741;28;20067;-94
2022/12/04 00:08:10;;;;;;;60.87;20.43;;;;;;;-0.57;100.00;101648.56;5028219;28;20296;-94
2022/12/04 00:10:55;;;;;;;68.47;21.88;;;;;;;-0.57;100.00;101644.16;5016227;23;20468;-93
2022/12/04 00:13:22;;;;;;;67.82;21.90;;;;;;;-0.55;100.00;101644.81;5013432;28;20034;-94
2022/12/04 00:15:47;;;;;;;67.07;21.42;;;;;;;-0.52;100.00;101648.91;5029301;28;20191;-92
2022/12/04 00:18:13;;;;;;;53.57;19.07;;;;;;;-0.53;100.00;101647.25;5017750;28;20132;-93
2022/12/04 00:20:39;;;;;;;67.57;21.43;;;;;;;-0.39;100.00;101667.66;5027208;28;20685;-92
2022/12/04 00:23:04;;;;;;;55.28;17.67;;;;;;;-0.42;100.00;101661.91;5047666;28;20025;-92
2022/12/04 00:25:30;;;;;;;57.63;20.07;;;;;;;-0.49;100.00;101661.75;5044567;28;20044;-92
2022/12/04 00:27:55;;;;;;;67.25;20.73;;;;;;;-0.49;100.00;101665.19;5048690;28;20045;-93
2022/12/04 00:34:40;;;;;;;62.75;20.10;;;;;;;-0.55;100.00;101646.59;5003342;28;20042;-92
2022/12/04 00:37:44;;;;;;;66.20;21.05;;;;;;;-0.59;100.00;101632.94;4925582;28;20442;-92
2022/12/04 00:40:16;;;;;;;63.37;20.33;;;;;;;-0.56;100.00;101645.78;4995634;28;20034;-92
2022/12/04 00:42:52;;;;;;;56.13;19.10;;;;;;;-0.63;100.00;101634.25;4996167;28;20397;-92
2022/12/04 00:45:31;;;;;;;66.32;20.27;;;;;;;-0.47;100.00;101655.31;5005265;28;20494;-93
2022/12/04 00:47:56;;;;;;;68.32;21.10;;;;;;;-0.56;100.00;101637.91;5007870;28;20437;-94
2022/12/04 00:50:23;;;;;;;62.43;18.93;;;;;;;-0.46;100.00;101653.53;5023234;28;20036;-93
2022/12/04 00:53:00;;;;;;;57.30;20.15;;;;;;;-0.58;100.00;101634.59;5062374;28;20112;-92
2022/12/04 00:55:36;;;;;;;61.88;20.52;;;;;;;-0.52;100.00;101647.09;5068896;28;20059;-93
2022/12/04 01:01:40;;;;;;;66.32;21.55;;;;;;;-0.53;100.00;101628.84;4990416;28;20080;-92
2022/12/04 01:04:05;;;;;;;62.73;19.93;;;;;;;-0.48;100.00;101660.78;5055740;28;20044;-92
2022/12/04 01:06:43;;;;;;;69.27;21.60;;;;;;;-0.60;100.00;101636.56;5072439;28;20024;-92
2022/12/04 01:09:08;;;;;;;70.05;20.50;;;;;;;-0.55;100.00;101641.34;5070087;28;20021;-92
2022/12/04 01:11:34;;;;;;;66.40;21.53;;;;;;;-0.61;100.00;101643.63;5075687;28;20035;-92
2022/12/04 01:13:59;;;;;;;65.68;21.02;;;;;;;-0.54;100.00;101651.69;5076135;28;20036;-92
2022/12/04 01:16:31;;;;;;;62.30;21.33;;;;;;;-0.47;100.00;101663.22;5073189;28;20035;-93
2022/12/04 01:18:57;;;;;;;65.22;20.92;;;;;;;-0.46;100.00;101658.81;5071166;28;20032;-92
2022/12/04 01:21:23;;;;;;;55.93;20.83;;;;;;;-0.50;100.00;101660.91;5057949;22;20583;-92
2022/12/04 01:23:49;;;;;;;60.63;20.63;;;;;;;-0.46;100.00;101659.59;5052391;28;20036;-93
2022/12/04 01:26:14;;;;;;;65.90;21.40;;;;;;;-0.47;100.00;101660.59;5034090;28;20066;-93
2022/12/04 01:28:40;;;;;;;65.77;20.13;;;;;;;-0.50;100.00;101654.84;5035339;28;20049;-92
2022/12/04 01:31:10;;;;;;;58.10;19.77;;;;;;;-0.49;100.00;101652.03;5052562;28;20116;-93
2022/12/04 01:33:37;;;;;;;57.20;19.33;;;;;;;-0.43;100.00;101676.06;5052767;28;20519;-94
2022/12/04 01:36:06;;;;;;;62.30;19.97;;;;;;;-0.42;100.00;101677.72;5052782;28;20330;-93
2022/12/04 01:38:34;;;;;;;66.30;21.80;;;;;;;-0.42;100.00;101669.81;5053682;28;20025;-93
2022/12/04 01:40:59;;;;;;;62.88;19.98;;;;;;;-0.39;100.00;101672.13;5043495;28;20025;-92
2022/12/04 01:43:27;;;;;;;59.97;21.37;;;;;;;-0.41;100.00;101667.00;5046981;28;20032;-93
2022/12/04 01:45:58;;;;;;;62.42;21.27;;;;;;;-0.40;100.00;101665.22;5061034;28;20064;-94
2022/12/04 01:48:35;;;;;;;58.22;19.98;;;;;;;-0.39;100.00;101656.34;5053896;28;20476;-93
2022/12/04 01:51:09;;;;;;;64.20;22.60;;;;;;;-0.45;100.00;101649.88;5052670;28;20032;-94
2022/12/04 01:53:39;;;;;;;65.75;21.95;;;;;;;-0.41;100.00;101656.47;5052676;28;20036;-93
2022/12/04 01:56:05;;;;;;;66.10;21.65;;;;;;;-0.46;100.00;101653.53;5034768;28;20021;-93
2022/12/04 01:58:36;;;;;;;63.55;19.80;;;;;;;-0.39;100.00;101653.69;5029423;28;20467;-92
2022/12/04 02:01:05;;;;;;;67.45;21.20;;;;;;;-0.44;100.00;101645.47;5032096;28;20030;-93
2022/12/04 02:03:31;;;;;;;62.70;21.43;;;;;;;-0.42;100.00;101644.28;5033034;28;20538;-93
2022/12/04 02:05:56;;;;;;;61.43;20.57;;;;;;;-0.41;100.00;101653.03;5032744;28;20272;-93
2022/12/04 02:08:22;;;;;;;67.70;20.93;;;;;;;-0.43;100.00;101649.75;5032680;28;20057;-94
2022/12/04 02:10:57;;;;;;;58.33;21.30;;;;;;;-0.40;100.00;101659.94;5035342;28;20302;-93
2022/12/04 02:13:32;;;;;;;63.15;21.35;;;;;;;-0.38;100.00;101657.97;5051075;28;20429;-93
2022/12/04 02:16:24;;;;;;;55.42;19.10;;;;;;;-0.40;100.00;101650.22;5062787;28;20111;-92
2022/12/04 02:18:57;;;;;;;43.50;16.53;;;;;;;-0.39;100.00;101651.88;5064527;28;20028;-93
2022/12/04 02:21:48;;;;;;;64.73;21.73;;;;;;;-0.42;100.00;101646.13;5051866;28;20288;-93
2022/12/04 02:24:35;;;;;;;62.17;20.63;;;;;;;-0.42;100.00;101648.75;5047655;28;20032;-93
2022/12/04 02:27:22;;;;;;;58.95;19.08;;;;;;;-0.34;100.00;101646.09;5051215;28;20124;-93
2022/12/04 02:29:59;;;;;;;65.70;21.40;;;;;;;-0.44;100.00;101654.16;5049348;28;20033;-92
2022/12/04 02:32:45;;;;;;;53.67;19.88;;;;;;;-0.43;100.00;101655.81;5033373;28;20032;-92
2022/12/04 02:35:20;;;;;;;57.10;20.98;;;;;;;-0.45;100.00;101636.72;5033245;28;20074;-93
2022/12/04 02:37:53;;;;;;;60.77;20.13;;;;;;;-0.44;100.00;101650.72;5035755;28;20491;-92
2022/12/04 02:40:25;;;;;;;56.37;18.57;;;;;;;-0.48;100.00;101637.06;5049234;28;20342;-92
2022/12/04 02:43:12;;;;;;;60.03;20.77;;;;;;;-0.44;100.00;101648.09;5054048;28;20029;-92
2022/12/04 02:45:58;;;;;;;60.25;21.20;;;;;;;-0.49;100.00;101640.69;5062742;28;20021;-93
2022/12/04 02:48:27;;;;;;;68.72;23.27;;;;;;;-0.46;100.00;101646.44;5059938;28;20378;-93
2022/12/04 02:50:55;;;;;;;59.30;21.55;;;;;;;-0.46;100.00;101645.63;5057398;28;20536;-92
2022/12/04 02:53:29;;;;;;;58.60;20.15;;;;;;;-0.44;100.00;101643.63;5036394;28;20028;-92
2022/12/04 02:56:00;;;;;;;47.80;16.30;;;;;;;-0.46;100.00;101635.91;5052233;28;20136;-93
2022/12/04 02:58:31;;;;;;;67.63;22.67;;;;;;;-0.52;100.00;101633.13;5051868;28;20294;-93
2022/12/04 03:01:00;;;;;;;62.90;22.45;;;;;;;-0.52;100.00;101636.56;5051657;28;20036;-94
2022/12/04 03:03:29;;;;;;;71.28;23.05;;;;;;;-0.51;100.00;101626.88;5050408;28;20033;-93
2022/12/04 03:05:59;;;;;;;66.20;22.20;;;;;;;-0.50;100.00;101628.50;5043013;28;20238;-94
2022/12/04 03:08:31;;;;;;;72.43;23.15;;;;;;;-0.52;100.00;101626.03;5052079;28;20578;-93
2022/12/04 03:10:59;;;;;;;57.45;20.10;;;;;;;-0.45;100.00;101634.09;5051919;28;20028;-93
2022/12/04 03:13:39;;;;;;;64.05;21.35;;;;;;;-0.43;100.00;101639.22;5051073;28;20040;-93
2022/12/04 03:16:13;;;;;;;66.90;22.47;;;;;;;-0.51;100.00;101643.47;5032387;28;20029;-93
2022/12/04 03:18:42;;;;;;;62.90;22.42;;;;;;;-0.51;100.00;101643.47;5035456;28;20021;-93
2022/12/04 03:21:19;;;;;;;65.35;22.45;;;;;;;-0.53;100.00;101640.16;5047676;28;20037;-92
2022/12/04 03:23:52;;;;;;;66.88;23.80;;;;;;;-0.55;100.00;101633.44;5050437;28;20052;-92
2022/12/04 03:26:26;;;;;;;67.93;23.33;;;;;;;-0.50;100.00;101639.84;5033045;28;20043;-94
2022/12/04 03:29:07;;;;;;;53.83;18.88;;;;;;;-0.48;100.00;101637.88;5050176;28;20048;-93
2022/12/04 03:31:44;;;;;;;63.78;21.70;;;;;;;-0.50;100.00;101629.31;5053432;28;20021;-93
2022/12/04 03:34:14;;;;;;;63.90;21.83;;;;;;;-0.49;100.00;101630.16;5059504;28;20123;-93
2022/12/04 03:36:48;;;;;;;54.95;19.58;;;;;;;-0.37;100.00;101634.09;5068888;28;20075;-93
2022/12/04 03:39:19;;;;;;;68.55;22.98;;;;;;;-0.43;100.00;101628.66;5030629;28;20055;-93
2022/12/04 03:42:15;;;;;;;59.35;19.88;;;;;;;-0.44;100.00;101627.03;5051110;28;20037;-93
2022/12/04 03:44:52;;;;;;;64.07;21.85;;;;;;;-0.49;100.00;101619.63;5050108;28;20068;-93
2022/12/04 03:47:26;;;;;;;67.22;22.55;;;;;;;-0.50;100.00;101610.88;5049404;28;20108;-94
2022/12/04 03:49:57;;;;;;;66.65;23.48;;;;;;;-0.50;100.00;101613.53;5050565;28;20029;-93
2022/12/04 03:52:32;;;;;;;66.33;22.40;;;;;;;-0.54;100.00;101614.81;5051122;28;20036;-93
2022/12/04 03:55:06;;;;;;;62.00;21.80;;;;;;;-0.51;100.00;101624.22;5031249;28;20303;-93
2022/12/04 03:57:36;;;;;;;64.50;22.77;;;;;;;-0.52;100.00;101614.69;5051088;28;20056;-93
2022/12/04 04:00:08;;;;;;;67.55;23.35;;;;;;;-0.51;100.00;101622.41;5049145;28;20045;-93
2022/12/04 04:02:40;;;;;;;67.03;21.83;;;;;;;-0.53;100.00;101608.56;5049965;28;20029;-93
2022/12/04 04:05:09;;;;;;;68.15;22.75;;;;;;;-0.47;100.00;101618.47;5050936;28;20380;-94
2022/12/04 04:07:45;;;;;;;65.85;22.73;;;;;;;-0.48;100.00;101616.81;5050514;28;20024;-93
2022/12/04 04:10:14;;;;;;;62.10;22.25;;;;;;;-0.48;100.00;101613.38;5048088;28;20814;-94
2022/12/04 04:12:45;;;;;;;67.80;23.30;;;;;;;-0.49;100.00;101617.00;5047879;28;20034;-93
2022/12/04 04:26:33;;;;;;;63.83;21.77;;;;;;;-0.47;100.00;101623.72;5049929;28;20101;-91
2022/12/04 04:28:58;;;;;;;65.65;22.58;;;;;;;-0.45;100.00;101613.03;5051189;28;20067;-93
2022/12/04 04:31:37;;;;;;;58.87;21.50;;;;;;;-0.39;100.00;101620.28;5057480;28;20116;-92
2022/12/04 04:34:23;;;;;;;70.18;21.80;;;;;;;-0.47;100.00;101618.47;5054200;28;20064;-92
2022/12/04 04:37:10;;;;;;;66.28;24.60;;;;;;;-0.50;100.00;101608.25;5040789;28;20524;-91
2022/12/04 04:39:47;;;;;;;63.97;22.00;;;;;;;-0.51;100.00;101605.78;5044286;28;20025;-92
2022/12/04 04:42:41;;;;;;;63.55;22.67;;;;;;;-0.48;100.00;101616.81;5053491;28;20064;-91
2022/12/04 04:45:20;;;;;;;64.57;22.95;;;;;;;-0.47;100.00;101615.03;5015712;28;20033;-92
2022/12/04 04:47:51;;;;;;;69.60;23.40;;;;;;;-0.46;100.00;101616.66;5054080;28;20035;-92
2022/12/04 04:50:18;;;;;;;67.43;23.37;;;;;;;-0.50;100.00;101624.06;5035683;28;20150;-92
2022/12/04 04:52:52;;;;;;;58.60;20.23;;;;;;;-0.42;100.00;101625.06;5053852;28;20761;-92
2022/12/04 04:55:19;;;;;;;65.47;23.02;;;;;;;-0.39;100.00;101616.81;5053312;28;20025;-92
2022/12/04 04:57:44;;;;;;;58.42;19.70;;;;;;;-0.44;100.00;101619.13;5035018;28;20029;-92
2022/12/04 05:00:17;;;;;;;58.45;21.20;;;;;;;-0.39;100.00;101619.47;5053683;28;20035;-92
2022/12/04 05:02:43;;;;;;;63.67;23.33;;;;;;;-0.41;100.00;101621.44;5052524;28;20028;-92
2022/12/04 05:05:11;;;;;;;66.10;23.33;;;;;;;-0.46;100.00;101625.38;5053503;28;20191;-92
2022/12/04 05:07:36;;;;;;;67.30;22.27;;;;;;;-0.46;100.00;101635.91;5052254;28;20294;-92
2022/12/04 05:10:03;;;;;;;64.63;22.58;;;;;;;-0.46;100.00;101628.00;5052011;28;20017;-92
2022/12/04 05:12:29;;;;;;;60.87;21.13;;;;;;;-0.43;100.00;101631.31;5053223;28;20135;-92
2022/12/04 05:14:55;;;;;;;67.93;22.87;;;;;;;-0.46;100.00;101627.19;5052441;28;20291;-92
2022/12/04 05:17:20;;;;;;;62.97;23.15;;;;;;;-0.46;100.00;101625.38;5053065;28;20021;-92
2022/12/04 05:19:55;;;;;;;63.93;23.10;;;;;;;-0.40;100.00;101621.25;5050163;28;20361;-91
2022/12/04 05:22:26;;;;;;;62.42;22.10;;;;;;;-0.42;100.00;101633.75;5054232;28;20044;-91
2022/12/04 05:24:52;;;;;;;64.53;21.93;;;;;;;-0.44;100.00;101625.19;5037154;28;20061;-90
2022/12/04 05:27:18;;;;;;;63.80;23.13;;;;;;;-0.47;100.00;101612.38;5069777;28;20302;-90
2022/12/04 05:29:43;;;;;;;59.85;22.08;;;;;;;-0.48;100.00;101611.53;5047355;28;20018;-91
2022/12/04 05:32:08;;;;;;;67.43;23.23;;;;;;;-0.41;100.00;101624.06;5051503;28;20033;-90
2022/12/04 05:34:34;;;;;;;57.20;20.93;;;;;;;-0.29;100.00;101621.91;5052776;28;20044;-92
2022/12/04 05:36:59;;;;;;;67.83;23.97;;;;;;;-0.41;100.00;101613.53;5053671;28;20758;-94
2022/12/04 05:39:24;;;;;;;63.45;22.25;;;;;;;-0.42;100.00;101622.41;5052407;28;20052;-91
2022/12/04 05:41:50;;;;;;;64.27;23.43;;;;;;;-0.42;100.00;101625.06;5052294;28;20067;-90
2022/12/04 05:44:15;;;;;;;69.10;22.30;;;;;;;-0.39;100.00;101622.09;5052687;28;20495;-89
2022/12/04 05:46:40;;;;;;;74.07;23.80;;;;;;;-0.37;100.00;101617.50;5050566;28;20028;-89
2022/12/04 05:49:06;;;;;;;62.43;22.27;;;;;;;-0.38;100.00;101613.22;5052899;28;20177;-89
2022/12/04 05:51:31;;;;;;;59.10;21.03;;;;;;;-0.36;100.00;101608.56;5050389;28;20017;-88
2022/12/04 05:53:56;;;;;;;66.67;22.43;;;;;;;-0.42;100.00;101604.78;5049463;28;20037;-90
2022/12/04 05:56:22;;;;;;;63.03;23.05;;;;;;;-0.42;100.00;101604.78;5052522;28;20021;-92
2022/12/04 05:58:51;;;;;;;67.27;23.67;;;;;;;-0.42;100.00;101610.06;5051724;28;20481;-90
2022/12/04 06:01:20;;;;;;;66.38;21.85;;;;;;;-0.42;100.00;101607.44;5050222;28;20036;-90
2022/12/04 06:03:46;;;;;;;67.50;22.43;;;;;;;-0.42;100.00;101598.72;5050350;28;20029;-89
2022/12/04 06:06:20;;;;;;;67.50;23.87;;;;;;;-0.35;100.00;101608.41;5049954;28;20295;-87
2022/12/04 06:08:46;;;;;;;60.17;21.75;;;;;;;-0.44;100.00;101598.88;5050844;28;20516;-88
2022/12/04 06:11:16;;;;;;;64.27;22.43;;;;;;;-0.47;100.00;101596.59;5050225;28;20067;-88
2022/12/04 06:13:43;;;;;;;56.85;19.83;;;;;;;-0.46;100.00;101599.03;5051684;28;20041;-88
2022/12/04 06:16:21;;;;;;;67.45;23.85;;;;;;;-0.46;100.00;101598.22;5051662;28;20036;-88
2022/12/04 06:18:52;;;;;;;64.78;21.63;;;;;;;-0.46;100.00;101600.88;5049117;28;20128;-89
2022/12/04 06:21:18;;;;;;;72.85;23.77;;;;;;;-0.48;100.00;101601.00;5050381;28;20033;-90
2022/12/04 06:23:43;;;;;;;65.25;22.67;;;;;;;-0.44;100.00;101600.69;5051661;28;20106;-88
2022/12/04 06:26:09;;;;;;;65.43;23.57;;;;;;;-0.46;100.00;101609.56;5047456;28;20753;-88
2022/12/04 06:28:35;;;;;;;62.13;21.53;;;;;;;-0.45;100.00;101597.22;5047886;28;20071;-87
2022/12/04 06:31:07;;;;;;;66.30;23.83;;;;;;;-0.43;100.00;101603.16;5043864;28;20021;-88
2022/12/04 06:33:34;;;;;;;64.30;22.85;;;;;;;-0.42;100.00;101614.50;5039793;28;20032;-88
2022/12/04 06:36:02;;;;;;;64.20;23.55;;;;;;;-0.43;100.00;101605.78;5042611;28;20029;-88
2022/12/04 06:38:28;;;;;;;66.32;22.10;;;;;;;-0.44;100.00;101608.59;5048816;28;20032;-89
2022/12/04 06:40:54;;;;;;;62.87;22.57;;;;;;;-0.43;100.00;101607.59;5039946;28;20022;-89
2022/12/04 06:43:19;;;;;;;61.17;22.33;;;;;;;-0.44;100.00;101617.31;5038096;28;20794;-87
2022/12/04 06:45:44;;;;;;;70.10;24.47;;;;;;;-0.43;100.00;101597.88;5045431;28;20032;-87
2022/12/04 06:48:09;;;;;;;69.67;24.30;;;;;;;-0.42;100.00;101612.69;5045483;28;20040;-90
2022/12/04 06:50:35;;;;;;;58.97;21.07;;;;;;;-0.39;100.00;101608.94;5050714;28;20035;-90
2022/12/04 06:53:00;;;;;;;65.53;22.67;;;;;;;-0.41;100.00;101613.53;5049806;28;20472;-89
2022/12/04 06:55:25;;;;;;;59.57;20.67;;;;;;;-0.32;100.00;101607.25;5050873;28;20685;-92
2022/12/04 06:57:51;;;;;;;66.67;22.30;;;;;;;-0.41;100.00;101611.72;5033336;28;20021;-91
2022/12/04 07:00:16;;;;;;;62.97;21.07;;;;;;;-0.39;100.00;101609.72;5049397;28;20111;-92
2022/12/04 07:02:41;;;;;;;61.57;22.07;;;;;;;-0.38;100.00;101619.28;5050755;28;20577;-92
2022/12/04 07:05:07;;;;;;;63.20;22.93;;;;;;;-0.41;100.00;101622.25;5048158;28;20116;-90
2022/12/04 07:07:32;;;;;;;54.63;19.02;;;;;;;-0.29;100.00;101614.03;5051615;28;20108;-88
2022/12/04 07:09:57;;;;;;;57.33;21.57;;;;;;;-0.37;100.00;101622.75;5049851;28;20039;-90
2022/12/04 07:12:23;;;;;;;63.63;22.50;;;;;;;-0.43;100.00;101620.78;5050525;28;20029;-91
2022/12/04 07:14:48;;;;;;;56.30;20.27;;;;;;;-0.32;100.00;101625.69;5052374;28;20275;-91
2022/12/04 07:17:13;;;;;;;58.53;21.43;;;;;;;-0.37;100.00;101634.09;5053124;28;20099;-90
2022/12/04 07:19:38;;;;;;;61.00;22.70;;;;;;;-0.37;100.00;101633.28;5052366;28;20155;-90
2022/12/04 07:22:05;;;;;;;64.10;22.20;;;;;;;-0.37;100.00;101635.94;5052475;28;20029;-90
2022/12/04 07:24:30;;;;;;;65.38;22.75;;;;;;;-0.38;100.00;101642.19;5055190;28;20044;-91
2022/12/04 07:26:55;;;;;;;64.33;23.07;;;;;;;-0.34;100.00;101644.31;5055661;28;20037;-90
2022/12/04 07:29:20;;;;;;;58.37;21.17;;;;;;;-0.33;100.00;101639.84;5050677;28;20032;-90
2022/12/04 07:31:46;;;;;;;63.58;21.88;;;;;;;-0.33;100.00;101650.38;5049940;28;20020;-91
2022/12/04 07:34:11;;;;;;;58.93;22.13;;;;;;;-0.30;100.00;101650.06;5052912;28;20466;-91
2022/12/04 07:36:38;;;;;;;58.63;20.93;;;;;;;-0.28;100.00;101653.34;5055818;28;20086;-91
2022/12/04 07:39:04;;;;;;;60.67;21.77;;;;;;;-0.31;100.00;101643.97;5045512;28;20037;-89
2022/12/04 07:41:29;;;;;;;60.03;21.37;;;;;;;-0.32;100.00;101650.25;5028152;28;20037;-92
2022/12/04 07:43:54;;;;;;;42.17;17.23;;;;;;;-0.25;100.00;101645.13;5048155;28;20036;-92
2022/12/04 07:46:23;;;;;;;108.73;23.17;;;;;;;-0.21;100.00;101646.44;5047890;28;20060;-91
2022/12/04 07:48:48;;;;;;;57.63;21.98;;;;;;;-0.29;100.00;101651.72;5049119;28;20036;-91
2022/12/04 07:51:20;;;;;;;57.40;20.47;;;;;;;-0.24;100.00;101648.56;5050595;28;20036;-90
2022/12/04 07:53:46;;;;;;;52.47;19.52;;;;;;;-0.19;100.00;101655.00;5046904;28;20571;-88
2022/12/04 07:56:12;;;;;;;42.75;17.90;;;;;;;-0.16;100.00;101653.84;5044778;28;20068;-88
2022/12/04 07:58:37;;;;;;;49.75;19.92;;;;;;;-0.14;100.00;101653.66;5047341;28;20052;-87
2022/12/04 08:01:06;;;;;;;54.47;20.57;;;;;;;-0.16;100.00;101659.94;5046721;28;20029;-86
2022/12/04 08:03:31;;;;;;;56.53;20.40;;;;;;;-0.21;100.00;101650.88;5041299;28;20080;-84
2022/12/04 08:05:59;;;;;;;51.23;18.40;;;;;;;-0.18;100.00;101655.81;5049901;28;20037;-88
2022/12/04 08:08:25;;;;;;;42.72;17.23;;;;;;;-0.10;100.00;101661.09;5050837;28;20021;-89
2022/12/04 08:10:50;;;;;;;52.30;19.33;;;;;;;-0.09;100.00;101656.63;5057005;28;20162;-91
2022/12/04 08:13:15;;;;;;;54.07;19.20;;;;;;;-0.10;100.00;101666.38;5054324;28;20073;-92
2022/12/04 08:15:40;;;;;;;51.97;18.07;;;;;;;-0.12;100.00;101662.22;5049920;28;20029;-89
2022/12/04 08:18:06;;;;;;;47.47;17.47;;;;;;;-0.09;100.00;101660.09;5054358;28;20586;-90
2022/12/04 08:20:31;;;;;;;44.67;16.37;;;;;;;0.03;100.00;101667.66;5051061;28;20053;-88
2022/12/04 08:22:56;;;;;;;51.43;20.17;;;;;;;-0.03;100.00;101666.53;5054380;28;20033;-91
2022/12/04 08:25:22;;;;;;;39.77;15.67;;;;;;;0.08;100.00;101670.63;5053026;28;20411;-91
2022/12/04 08:27:47;;;;;;;44.40;17.73;;;;;;;0.01;100.00;101670.44;5051773;28;20086;-91
2022/12/04 08:30:12;;;;;;;59.67;18.77;;;;;;;0.03;100.00;101665.84;5050150;28;20833;-87
2022/12/04 08:32:38;;;;;;;45.97;16.30;;;;;;;0.07;100.00;101676.88;5049875;28;20025;-86
2022/12/04 08:35:03;;;;;;;37.10;15.30;;;;;;;0.09;100.00;101670.44;5052421;28;20036;-83
2022/12/04 08:37:29;;;;;;;46.97;17.35;;;;;;;0.09;100.00;101667.00;5052394;28;20044;-88
2022/12/04 08:39:54;;;;;;;41.37;16.40;;;;;;;0.17;100.00;101661.69;5052281;28;20492;-92
2022/12/04 08:42:20;;;;;;;45.03;17.10;;;;;;;0.19;100.00;101664.16;5050628;28;20017;-93
2022/12/04 08:44:45;;;;;;;44.67;17.80;;;;;;;0.19;100.00;101664.16;5048777;28;20080;-90
2022/12/04 08:47:10;;;;;;;47.55;17.38;;;;;;;0.28;100.00;101661.34;5052390;28;20128;-92
2022/12/04 08:49:36;;;;;;;40.73;16.27;;;;;;;0.28;100.00;101660.53;5054576;28;20017;-91
2022/12/04 08:52:01;;;;;;;48.50;17.87;;;;;;;0.30;100.00;101653.28;5051541;28;20587;-92
2022/12/04 08:54:26;;;;;;;48.17;17.60;;;;;;;0.35;100.00;101650.97;5057084;28;20045;-90
2022/12/04 08:56:51;;;;;;;38.20;14.60;;;;;;;0.38;100.00;101647.16;5060746;28;20395;-91
2022/12/04 08:59:17;;;;;;;38.10;15.63;;;;;;;0.50;100.00;101647.63;5058572;28;20025;-91
2022/12/04 09:01:42;;;;;;;39.07;15.13;;;;;;;0.51;100.00;101655.34;5050763;28;20029;-91
2022/12/04 09:04:07;;;;;;;44.60;16.40;;;;;;;0.49;100.00;101654.69;5045678;28;20380;-95
2022/12/04 09:06:33;;;;;;;42.70;16.53;;;;;;;0.51;100.00;101643.97;5046769;28;20025;-90
2022/12/04 09:08:58;;;;;;;37.80;14.97;;;;;;;0.55;100.00;101653.19;5054732;28;20071;-90
2022/12/04 09:11:25;;;;;;;40.57;15.70;;;;;;;0.58;100.00;101652.84;5066404;28;20032;-88
2022/12/04 09:13:51;;;;;;;34.53;13.48;;;;;;;0.61;100.00;101663.06;5066732;28;20061;-92
2022/12/04 09:16:19;;;;;;;41.70;16.57;;;;;;;0.67;100.00;101670.28;5058368;28;20040;-89
2022/12/04 09:18:45;;;;;;;37.88;15.80;;;;;;;0.70;100.00;101658.56;5062418;28;20037;-92
2022/12/04 09:21:15;;;;;;;37.42;15.43;;;;;;;0.71;100.00;101655.78;5054191;28;20029;-91
2022/12/04 09:23:40;;;;;;;39.75;14.73;;;;;;;0.84;100.00;101664.94;5053398;28;20035;-92
2022/12/04 09:26:20;;;;;;;30.03;12.57;;;;;;;0.82;100.00;101665.09;5055700;28;20559;-91
2022/12/04 09:28:46;;;;;;;34.55;13.07;;;;;;;0.81;100.00;101667.94;5053211;28;20027;-94
2022/12/04 09:31:11;;;;;;;38.63;14.25;;;;;;;0.81;100.00;101678.47;5054090;28;20029;-91
2022/12/04 09:33:36;;;;;;;38.40;15.83;;;;;;;0.81;100.00;101666.13;5051562;28;20037;-91
2022/12/04 09:36:03;;;;;;;37.03;14.90;;;;;;;0.81;100.00;101673.19;5052447;28;20399;-93
2022/12/04 09:38:29;;;;;;;38.80;15.05;;;;;;;0.81;100.00;101673.19;5051431;28;20112;-93
2022/12/04 09:41:13;;;;;;;41.35;14.82;;;;;;;0.74;100.00;101676.53;5067161;28;20485;-88
2022/12/04 09:43:56;;;;;;;36.13;14.20;;;;;;;0.68;100.00;101676.38;5049371;28;20041;-90
2022/12/04 09:46:53;;;;;;;35.00;13.80;;;;;;;0.63;100.00;101676.91;5045548;28;20033;-88
2022/12/04 09:49:24;;;;;;;32.80;11.32;;;;;;;0.56;100.00;101666.22;5015509;28;20040;-88
2022/12/04 09:51:53;;;;;;;31.13;13.07;;;;;;;0.55;100.00;101666.38;5050391;28;20182;-87
2022/12/04 09:54:23;;;;;;;31.38;12.25;;;;;;;0.55;100.00;101676.91;5050753;28;20032;-88
2022/12/04 09:56:54;;;;;;;33.50;12.77;;;;;;;0.41;100.00;101668.72;5048862;28;20037;-90
2022/12/04 09:59:24;;;;;;;26.85;11.07;;;;;;;0.51;100.00;101673.00;5051309;28;20044;-88
2022/12/04 10:02:01;;;;;;;33.60;12.73;;;;;;;0.42;100.00;101680.91;5050819;28;20036;-88
2022/12/04 10:04:26;;;;;;;33.37;13.47;;;;;;;0.37;100.00;101677.16;5049236;28;20287;-88
2022/12/04 10:07:03;;;;;;;34.42;14.10;;;;;;;0.34;100.00;101680.13;5050583;28;20491;-89
2022/12/04 10:10:16;;;;;;;31.33;12.63;;;;;;;0.43;100.00;101677.28;5065913;22;20137;-88
2022/12/04 10:13:24;;;;;;;37.60;13.80;;;;;;;0.25;100.00;101660.84;5017615;28;20036;-88
2022/12/04 10:16:24;;;;;;;31.67;12.43;;;;;;;0.45;100.00;101672.69;5031143;28;20358;-88
2022/12/04 10:19:15;;;;;;;21.75;9.43;;;;;;;0.53;100.00;101671.00;4978856;28;20461;-88
2022/12/04 10:22:29;;;;;;;33.28;12.50;;;;;;;0.28;100.00;101636.81;5030052;28;20075;-92
2022/12/04 10:28:42;;;;;;;28.98;12.40;;;;;;;0.39;100.00;101649.59;5019455;28;20574;-90
2022/12/04 10:31:36;;;;;;;34.10;13.98;;;;;;;0.43;100.00;101672.03;5028933;28;20056;-91
2022/12/04 10:34:11;;;;;;;26.00;10.45;;;;;;;0.24;100.00;101638.13;5028730;28;20039;-95
2022/12/04 10:36:38;;;;;;;26.23;10.87;;;;;;;0.45;100.00;101669.22;5021213;28;20075;-92
2022/12/04 10:39:13;;;;;;;33.20;14.23;;;;;;;0.37;100.00;101675.31;5031495;28;20028;-91
2022/12/04 10:42:03;;;;;;;33.40;13.38;;;;;;;0.36;100.00;101676.34;5032897;28;20117;-92
2022/12/04 10:44:28;;;;;;;33.90;14.15;;;;;;;0.39;100.00;101673.34;5035365;28;20022;-93
2022/12/04 10:46:57;;;;;;;32.07;13.50;;;;;;;0.47;100.00;101676.97;5034250;28;20064;-92
2022/12/04 10:49:28;;;;;;;33.25;14.18;;;;;;;0.39;100.00;101669.91;5035519;28;20044;-93
2022/12/04 10:51:54;;;;;;;33.92;13.40;;;;;;;0.38;100.00;101668.25;5033078;28;20105;-93
2022/12/04 10:54:29;;;;;;;34.60;13.63;;;;;;;0.36;100.00;101664.97;5030982;28;20033;-93
2022/12/04 10:57:06;;;;;;;30.30;13.77;;;;;;;0.32;100.00;101664.47;5061491;23;20094;-90
2022/12/04 10:59:32;;;;;;;30.00;12.80;;;;;;;0.24;100.00;101633.69;5065210;28;20290;-91
2022/12/04 11:02:33;;;;;;;30.77;13.13;;;;;;;0.51;100.00;101660.63;5082212;28;20072;-92
2022/12/04 11:05:06;;;;;;;29.40;12.55;;;;;;;0.49;100.00;101649.41;5086018;28;20047;-93
2022/12/04 11:07:35;;;;;;;34.67;14.40;;;;;;;0.54;100.00;101656.84;5069518;28;20074;-93
2022/12/04 11:17:04;;;;;;;26.67;12.10;;;;;;;0.45;100.00;101632.31;5073086;28;20063;-94
2022/12/04 11:19:33;;;;;;;28.77;12.65;;;;;;;0.40;100.00;101622.25;5067854;28;20025;-93
2022/12/04 11:22:17;;;;;;;32.20;13.23;;;;;;;0.50;100.00;101623.88;5069352;28;20468;-93
2022/12/04 11:24:51;;;;;;;32.93;13.47;;;;;;;0.53;100.00;101631.44;5037357;28;20358;-93
2022/12/04 11:33:24;;;;;;;32.75;14.52;;;;;;;0.59;100.00;101631.59;4957601;28;20050;-90
2022/12/04 11:36:39;;;;;;;28.73;12.30;;;;;;;0.74;100.00;101631.66;5037428;28;20103;-94
2022/12/04 11:41:32;;;;;;;28.73;12.20;;;;;;;0.52;100.00;101606.88;5015134;28;20050;-96
2022/12/04 11:43:58;;;;;;;31.83;12.17;;;;;;;0.61;100.00;101615.56;5027627;28;20830;-93
2022/12/04 11:46:27;;;;;;;29.83;13.32;;;;;;;0.47;100.00;101621.56;5038306;28;20026;-95
2022/12/04 11:48:52;;;;;;;35.13;14.27;;;;;;;0.51;100.00;101618.41;5039690;28;20051;-96
2022/12/04 11:51:48;;;;;;;25.10;11.53;;;;;;;0.48;100.00;101620.59;5039166;28;20641;-96
2022/12/04 11:54:38;;;;;;;32.10;13.57;;;;;;;0.51;100.00;101630.78;5042027;28;20052;-95
2022/12/04 11:57:28;;;;;;;31.98;13.27;;;;;;;0.53;100.00;101626.19;5046431;28;20026;-96
2022/12/04 12:00:17;;;;;;;25.93;11.37;;;;;;;0.54;100.00;101617.28;5044534;28;20053;-95